createdAt,value
2018-10-06T00:00:34.014Z,1.67
2018-10-06T00:03:10.033Z,1.60
2018-10-06T00:05:46.445Z,1.50
2018-10-06T00:08:22.441Z,1.50
2018-10-06T00:10:59.147Z,1.50
2018-10-06T00:13:35.268Z,1.52
2018-10-06T00:16:11.309Z,1.57
2018-10-06T00:18:47.637Z,1.60
2018-10-06T00:21:23.985Z,1.30
2018-10-06T00:23:59.953Z,1.42
2018-10-06T00:26:36.004Z,1.55
2018-10-06T00:29:11.914Z,1.40
2018-10-06T00:31:48.260Z,1.57
2018-10-06T00:34:24.454Z,1.30
2018-10-06T00:37:00.282Z,1.40
2018-10-06T00:39:36.277Z,1.40
2018-10-06T00:42:12.325Z,1.50
2018-10-06T00:44:48.462Z,1.70
2018-10-06T00:47:25.631Z,1.23
2018-10-06T00:50:01.687Z,1.40
2018-10-06T00:52:38.145Z,1.37
2018-10-06T00:55:14.624Z,1.30
2018-10-06T00:57:51.065Z,1.32
2018-10-06T01:00:27.198Z,1.60
2018-10-06T01:03:03.286Z,1.50
2018-10-06T01:05:39.415Z,1.37
2018-10-06T01:08:15.418Z,1.40
2018-10-06T01:10:51.294Z,1.30
2018-10-06T01:13:27.642Z,1.20
2018-10-06T01:16:03.643Z,1.40
2018-10-06T01:18:39.648Z,1.40
2018-10-06T01:21:15.537Z,1.40
2018-10-06T01:23:51.330Z,1.50
2018-10-06T01:26:28.111Z,1.50
2018-10-06T01:29:04.474Z,1.20
2018-10-06T01:31:40.521Z,1.40
2018-10-06T01:34:17.105Z,1.33
2018-10-06T01:36:53.473Z,1.57
2018-10-06T01:39:29.718Z,1.53
2018-10-06T01:42:06.194Z,1.47
2018-10-06T01:44:42.318Z,1.50
2018-10-06T01:47:18.606Z,1.33
2018-10-06T01:49:55.289Z,1.20
2018-10-06T01:52:31.293Z,1.50
2018-10-06T01:55:07.490Z,1.60
2018-10-06T01:57:43.703Z,1.40
2018-10-06T02:00:20.873Z,1.40
2018-10-06T02:02:57.286Z,1.50
2018-10-06T02:05:33.549Z,1.37
2018-10-06T02:08:09.813Z,1.67
2018-10-06T02:10:46.849Z,1.40
2018-10-06T02:13:23.110Z,1.30
2018-10-06T02:15:59.286Z,1.57
2018-10-06T02:18:35.318Z,1.50
2018-10-06T02:21:11.507Z,1.47
2018-10-06T02:23:48.289Z,1.45
2018-10-06T02:26:24.497Z,1.80
2018-10-06T02:29:00.605Z,1.50
2018-10-06T02:31:37.013Z,1.50
2018-10-06T02:34:13.267Z,1.30
2018-10-06T02:36:49.761Z,1.57
2018-10-06T02:39:26.450Z,1.72
2018-10-06T02:42:02.905Z,1.55
2018-10-06T02:44:39.008Z,1.60
2018-10-06T02:47:15.232Z,1.40
2018-10-06T02:49:51.349Z,1.53
2018-10-06T02:52:27.544Z,1.53
2018-10-06T02:55:03.995Z,1.40
2018-10-06T02:57:40.341Z,1.60
2018-10-06T03:00:16.711Z,1.63
2018-10-06T03:02:52.541Z,1.47
2018-10-06T03:05:28.698Z,1.70
2018-10-06T03:08:05.215Z,1.50
2018-10-06T03:10:41.695Z,1.62
2018-10-06T03:13:17.669Z,1.50
2018-10-06T03:15:54.713Z,1.72
2018-10-06T03:18:31.216Z,1.63
2018-10-06T03:21:07.246Z,1.80
2018-10-06T03:23:43.320Z,1.60
2018-10-06T03:26:19.365Z,1.60
2018-10-06T03:28:55.289Z,1.60
2018-10-06T03:31:31.506Z,1.80
2018-10-06T03:34:07.573Z,1.70
2018-10-06T03:36:44.153Z,1.57
2018-10-06T03:39:20.473Z,1.65
2018-10-06T03:41:56.355Z,1.80
2018-10-06T03:44:33.150Z,1.75
2018-10-06T03:47:09.259Z,1.60
2018-10-06T03:49:45.526Z,1.60
2018-10-06T03:52:22.121Z,1.53
2018-10-06T03:54:58.540Z,1.77
2018-10-06T03:57:34.736Z,1.60
2018-10-06T04:00:11.361Z,1.80
2018-10-06T04:02:47.362Z,1.80
2018-10-06T04:05:25.526Z,1.80
2018-10-06T04:08:02.270Z,1.60
2018-10-06T04:10:38.484Z,1.60
2018-10-06T04:13:14.690Z,1.80
2018-10-06T04:15:51.067Z,1.83
2018-10-06T04:18:27.590Z,1.90
2018-10-06T04:21:03.624Z,1.60
2018-10-06T04:23:40.006Z,1.60
2018-10-06T04:26:16.199Z,1.52
2018-10-06T04:28:52.579Z,1.73
2018-10-06T04:33:15.284Z,1.50
2018-10-06T04:35:51.494Z,1.50
2018-10-06T04:38:27.376Z,1.70
2018-10-06T04:41:03.349Z,1.30
2018-10-06T04:43:39.380Z,1.50
2018-10-06T04:46:15.817Z,1.50
2018-10-06T04:48:52.156Z,1.50
2018-10-06T04:51:28.603Z,1.43
2018-10-06T04:54:04.751Z,1.50
2018-10-06T04:56:41.182Z,1.62
2018-10-06T04:59:17.381Z,1.20
2018-10-06T05:01:53.722Z,1.60
2018-10-06T05:04:30.375Z,1.30
2018-10-06T05:07:07.604Z,1.70
2018-10-06T05:09:43.867Z,1.60
2018-10-06T05:12:20.391Z,1.55
2018-10-06T05:14:56.357Z,1.40
2018-10-06T05:17:32.986Z,1.50
2018-10-06T05:20:09.391Z,1.40
2018-10-06T05:22:46.150Z,1.42
2018-10-06T05:25:22.723Z,1.40
2018-10-06T05:27:58.577Z,1.50
2018-10-06T05:30:35.198Z,1.50
2018-10-06T05:33:11.618Z,1.52
2018-10-06T05:35:47.586Z,1.50
2018-10-06T05:38:23.612Z,1.40
2018-10-06T05:40:59.649Z,1.60
2018-10-06T05:43:36.062Z,1.42
2018-10-06T05:46:12.441Z,1.35
2018-10-06T05:48:49.257Z,1.55
2018-10-06T05:51:25.377Z,1.47
2018-10-06T05:54:01.863Z,1.50
2018-10-06T05:56:38.405Z,1.70
2018-10-06T05:59:14.600Z,1.40
2018-10-06T06:01:50.712Z,1.90
2018-10-06T06:04:27.038Z,1.47
2018-10-06T06:07:03.010Z,1.40
2018-10-06T06:09:40.169Z,1.60
2018-10-06T06:12:16.533Z,1.30
2018-10-06T06:14:52.601Z,1.40
2018-10-06T06:17:28.807Z,1.30
2018-10-06T06:20:05.382Z,1.60
2018-10-06T06:22:41.816Z,1.45
2018-10-06T06:25:18.407Z,1.70
2018-10-06T06:27:54.380Z,1.30
2018-10-06T06:30:30.442Z,1.60
2018-10-06T06:33:06.602Z,1.30
2018-10-06T06:35:42.419Z,1.40
2018-10-06T06:38:18.895Z,1.45
2018-10-06T06:40:55.330Z,1.60
2018-10-06T06:43:31.491Z,1.80
2018-10-06T06:46:07.326Z,2.57
2018-10-06T06:48:43.413Z,2.92
2018-10-06T06:51:20.341Z,2.10
2018-10-06T06:53:56.692Z,2.00
2018-10-06T06:56:32.749Z,2.60
2018-10-06T06:59:08.765Z,2.40
2018-10-06T07:01:45.420Z,2.55
2018-10-06T07:06:18.105Z,2.40
2018-10-06T07:08:54.422Z,2.58
2018-10-06T07:11:30.360Z,2.60
2018-10-06T07:14:06.720Z,2.42
2018-10-06T07:16:42.923Z,2.55
2018-10-06T07:19:19.419Z,2.45
2018-10-06T07:21:55.310Z,2.40
2018-10-06T07:24:31.462Z,2.22
2018-10-06T07:27:07.414Z,2.40
2018-10-06T07:29:44.608Z,2.60
2018-10-06T07:32:20.345Z,2.60
2018-10-06T07:34:56.657Z,2.55
2018-10-06T07:37:32.781Z,2.37
2018-10-06T07:40:09.665Z,2.47
2018-10-06T07:42:45.736Z,2.40
2018-10-06T07:45:21.790Z,2.53
2018-10-06T07:47:57.656Z,2.35
2018-10-06T07:50:34.163Z,2.50
2018-10-06T07:53:11.754Z,2.20
2018-10-06T07:55:48.431Z,2.52
2018-10-06T07:58:24.510Z,2.90
2018-10-06T08:01:00.476Z,2.50
2018-10-06T08:03:37.626Z,3.10
2018-10-06T08:06:13.858Z,2.60
2018-10-06T08:08:49.910Z,2.70
2018-10-06T08:11:26.051Z,2.80
2018-10-06T08:14:02.785Z,3.08
2018-10-06T08:16:39.205Z,3.40
2018-10-06T08:19:15.450Z,2.92
2018-10-06T08:21:51.237Z,3.40
2018-10-06T08:24:27.453Z,3.00
2018-10-06T08:27:04.149Z,3.00
2018-10-06T08:29:40.071Z,3.20
2018-10-06T08:32:16.210Z,3.10
2018-10-06T08:34:52.626Z,3.05
2018-10-06T08:37:29.109Z,2.97
2018-10-06T08:40:05.521Z,3.17
2018-10-06T08:42:41.755Z,2.90
2018-10-06T08:45:18.132Z,3.40
2018-10-06T08:47:54.467Z,3.25
2018-10-06T08:50:30.737Z,2.80
2018-10-06T08:53:06.821Z,2.75
2018-10-06T08:55:42.814Z,3.15
2018-10-06T08:58:18.653Z,3.03
2018-10-06T09:00:54.462Z,2.67
2018-10-06T09:03:30.929Z,2.77
2018-10-06T09:06:07.420Z,2.80
2018-10-06T09:08:43.831Z,2.47
2018-10-06T09:11:20.457Z,3.05
2018-10-06T09:13:56.468Z,2.77
2018-10-06T09:16:33.034Z,2.60
2018-10-06T09:19:09.228Z,2.80
2018-10-06T09:21:45.868Z,2.43
2018-10-06T09:24:22.213Z,2.70
2018-10-06T09:26:58.809Z,2.60
2018-10-06T09:29:35.655Z,2.95
2018-10-06T09:32:12.232Z,2.67
2018-10-06T09:34:48.473Z,2.65
2018-10-06T09:37:24.659Z,2.62
2018-10-06T09:40:00.965Z,2.60
2018-10-06T09:42:37.432Z,2.90
2018-10-06T09:45:13.886Z,2.67
2018-10-06T09:47:50.388Z,2.52
2018-10-06T09:50:26.693Z,2.50
2018-10-06T09:53:03.481Z,2.67
2018-10-06T09:55:39.610Z,2.80
2018-10-06T09:58:15.606Z,3.00
2018-10-06T10:00:55.818Z,2.50
2018-10-06T10:03:35.669Z,2.80
2018-10-06T10:06:12.188Z,2.60
2018-10-06T10:08:48.491Z,2.40
2018-10-06T10:11:24.469Z,2.30
2018-10-06T10:14:00.485Z,2.50
2018-10-06T10:16:36.657Z,2.80
2018-10-06T10:19:12.843Z,2.50
2018-10-06T10:21:49.502Z,2.33
2018-10-06T10:24:25.905Z,2.53
2018-10-06T10:27:49.201Z,2.77
2018-10-06T10:30:25.302Z,2.40
2018-10-06T10:33:01.837Z,2.33
2018-10-06T10:35:38.515Z,1.93
2018-10-06T10:38:14.677Z,2.20
2018-10-06T10:40:50.411Z,2.30
2018-10-06T10:43:26.511Z,2.47
2018-10-06T10:46:02.421Z,2.73
2018-10-06T10:48:38.507Z,2.27
2018-10-06T10:51:14.473Z,2.12
2018-10-06T10:53:50.626Z,2.27
2018-10-06T10:56:26.500Z,2.60
2018-10-06T10:59:02.420Z,2.50
2018-10-06T11:01:38.503Z,2.50
2018-10-06T11:04:14.522Z,2.20
2018-10-06T11:06:50.501Z,2.43
2018-10-06T11:09:26.408Z,2.10
2018-10-06T11:12:02.509Z,2.37
2018-10-06T11:14:38.501Z,2.47
2018-10-06T11:17:14.646Z,2.55
2018-10-06T11:19:50.847Z,2.30
2018-10-06T11:22:27.291Z,2.60
2018-10-06T11:25:03.962Z,2.60
2018-10-06T11:27:40.236Z,2.50
2018-10-06T11:30:16.509Z,2.25
2018-10-06T11:32:52.692Z,2.10
2018-10-06T11:35:28.687Z,2.45
2018-10-06T11:38:04.744Z,2.80
2018-10-06T11:40:40.905Z,2.47
2018-10-06T11:43:16.685Z,2.30
2018-10-06T11:45:52.872Z,2.77
2018-10-06T11:48:28.709Z,2.40
2018-10-06T11:51:05.183Z,2.70
2018-10-06T11:53:41.513Z,2.45
2018-10-06T11:56:17.530Z,2.45
2018-10-06T11:58:53.645Z,2.40
2018-10-06T12:01:29.858Z,2.20
2018-10-06T12:04:06.229Z,2.30
2018-10-06T12:06:42.591Z,2.40
2018-10-06T12:09:18.525Z,2.60
2018-10-06T12:11:54.506Z,2.83
2018-10-06T12:14:32.017Z,2.47
2018-10-06T12:17:08.466Z,2.22
2018-10-06T12:19:44.433Z,1.97
2018-10-06T12:22:20.565Z,2.80
2018-10-06T12:24:56.533Z,2.13
2018-10-06T12:27:32.865Z,2.25
2018-10-06T12:30:09.362Z,2.57
2018-10-06T12:32:45.462Z,2.33
2018-10-06T12:35:22.243Z,2.12
2018-10-06T12:37:58.510Z,2.40
2018-10-06T12:40:34.376Z,2.40
2018-10-06T12:43:10.752Z,2.30
2018-10-06T12:45:47.386Z,2.30
2018-10-06T12:48:23.561Z,2.20
2018-10-06T12:50:59.542Z,2.30
2018-10-06T12:53:36.390Z,2.40
2018-10-06T12:56:12.237Z,2.45
2018-10-06T12:58:48.525Z,2.30
2018-10-06T13:01:24.543Z,2.60
2018-10-06T13:04:00.557Z,2.58
2018-10-06T13:06:36.544Z,2.60
2018-10-06T13:09:14.457Z,2.30
2018-10-06T13:11:50.740Z,2.50
2018-10-06T13:14:26.551Z,2.77
2018-10-06T13:17:02.455Z,2.37
2018-10-06T13:19:38.530Z,2.30
2018-10-06T13:22:14.552Z,2.53
2018-10-06T13:24:50.678Z,2.60
2018-10-06T13:27:26.553Z,2.30
2018-10-06T13:30:02.895Z,2.30
2018-10-06T13:32:39.386Z,2.40
2018-10-06T13:35:15.927Z,2.30
2018-10-06T13:37:51.988Z,2.35
2018-10-06T13:40:28.462Z,2.22
2018-10-06T13:43:04.737Z,2.08
2018-10-06T13:45:40.897Z,2.37
2018-10-06T13:48:17.238Z,2.10
2018-10-06T13:50:53.561Z,2.65
2018-10-06T13:53:29.573Z,2.70
2018-10-06T13:56:05.742Z,2.55
2018-10-06T13:58:41.790Z,2.60
2018-10-06T14:01:18.282Z,2.50
2018-10-06T14:03:54.562Z,2.52
2018-10-06T14:06:30.841Z,2.80
2018-10-06T14:09:07.305Z,2.97
2018-10-06T14:11:43.468Z,2.55
2018-10-06T14:14:19.468Z,3.30
2018-10-06T14:16:55.316Z,2.83
2018-10-06T14:19:31.554Z,2.60
2018-10-06T14:22:07.762Z,2.90
2018-10-06T14:24:44.105Z,3.15
2018-10-06T14:27:20.469Z,2.52
2018-10-06T14:29:56.933Z,3.00
2018-10-06T14:32:32.986Z,2.70
2018-10-06T14:35:08.820Z,2.50
2018-10-06T14:37:44.954Z,3.35
2018-10-06T14:40:21.347Z,2.87
2018-10-06T14:42:57.437Z,2.90
2018-10-06T14:45:33.604Z,2.42
2018-10-06T14:48:09.605Z,2.90
2018-10-06T14:50:45.749Z,2.67
2018-10-06T14:53:21.817Z,2.70
2018-10-06T14:55:58.200Z,3.40
2018-10-06T14:58:34.576Z,3.43
2018-10-06T15:01:12.045Z,2.37
2018-10-06T15:03:48.917Z,2.90
2018-10-06T15:06:26.378Z,2.97
2018-10-06T15:09:02.736Z,3.12
2018-10-06T15:11:38.937Z,2.90
2018-10-06T15:14:15.581Z,2.83
2018-10-06T15:16:51.422Z,2.70
2018-10-06T15:19:27.617Z,2.60
2018-10-06T15:22:03.586Z,2.98
2018-10-06T15:24:39.993Z,2.95
2018-10-06T15:27:16.014Z,2.95
2018-10-06T15:29:51.765Z,3.20
2018-10-06T15:32:27.931Z,2.70
2018-10-06T15:35:03.786Z,2.77
2018-10-06T15:37:40.043Z,2.87
2018-10-06T15:40:16.367Z,2.72
2018-10-06T15:42:52.655Z,2.57
2018-10-06T15:45:28.774Z,2.87
2018-10-06T15:48:04.773Z,2.70
2018-10-06T15:50:41.576Z,2.98
2018-10-06T15:53:17.721Z,2.80
2018-10-06T15:55:53.804Z,2.70
2018-10-06T15:58:29.993Z,2.50
2018-10-06T16:01:06.234Z,2.58
2018-10-06T16:03:42.362Z,2.20
2018-10-06T16:06:21.140Z,2.60
2018-10-06T16:08:57.805Z,2.60
2018-10-06T16:11:35.605Z,2.35
2018-10-06T16:14:11.727Z,2.57
2018-10-06T16:16:48.021Z,2.85
2018-10-06T16:19:23.804Z,2.50
2018-10-06T16:21:59.819Z,2.50
2018-10-06T16:24:36.361Z,2.80
2018-10-06T16:27:12.625Z,2.30
2018-10-06T16:29:48.605Z,2.43
2018-10-06T16:32:24.336Z,2.43
2018-10-06T16:35:01.262Z,2.10
2018-10-06T16:37:37.573Z,2.12
2018-10-06T16:40:14.180Z,2.00
2018-10-06T16:42:50.521Z,2.05
2018-10-06T16:45:26.616Z,2.30
2018-10-06T16:48:02.739Z,2.23
2018-10-06T16:50:38.621Z,2.50
2018-10-06T16:53:14.853Z,2.42
2018-10-06T16:55:50.619Z,2.30
2018-10-06T16:58:26.949Z,2.40
2018-10-06T17:01:02.997Z,2.57
2018-10-06T17:03:38.825Z,2.50
2018-10-06T17:06:15.309Z,2.40
2018-10-06T17:08:51.624Z,2.30
2018-10-06T17:11:27.622Z,2.33
2018-10-06T17:14:04.835Z,2.00
2018-10-06T17:16:40.793Z,2.20
2018-10-06T17:19:16.882Z,2.20
2018-10-06T17:21:52.861Z,2.40
2018-10-06T17:24:29.460Z,2.07
2018-10-06T17:27:05.798Z,2.25
2018-10-06T17:29:41.822Z,2.10
2018-10-06T17:32:18.041Z,2.40
2018-10-06T17:34:54.914Z,2.10
2018-10-06T17:37:30.925Z,1.73
2018-10-06T17:40:06.826Z,2.00
2018-10-06T17:42:42.816Z,2.00
2018-10-06T17:45:18.813Z,1.90
2018-10-06T17:47:54.917Z,2.12
2018-10-06T17:50:31.443Z,1.82
2018-10-06T17:53:07.477Z,1.90
2018-10-06T17:55:43.549Z,2.15
2018-10-06T17:58:19.818Z,1.73
2018-10-06T18:00:55.833Z,1.90
2018-10-06T18:03:31.976Z,2.00
2018-10-06T18:08:55.972Z,2.10
2018-10-06T18:11:32.550Z,2.20
2018-10-06T18:14:08.774Z,2.72
2018-10-06T18:16:44.818Z,2.90
2018-10-06T18:19:20.874Z,2.87
2018-10-06T18:21:56.618Z,3.30
2018-10-06T18:24:32.977Z,2.50
2018-10-06T18:27:09.479Z,2.40
2018-10-06T18:29:45.671Z,2.30
2018-10-06T18:32:21.830Z,2.30
2018-10-06T18:34:57.826Z,2.20
2018-10-06T18:37:33.855Z,2.17
2018-10-06T18:40:11.985Z,2.05
2018-10-06T18:42:48.306Z,2.03
2018-10-06T18:45:26.352Z,2.00
2018-10-06T18:48:02.653Z,2.00
2018-10-06T18:50:39.041Z,2.10
2018-10-06T18:53:16.668Z,2.30
2018-10-06T18:55:52.458Z,2.17
2018-10-06T18:58:28.423Z,1.90
2018-10-06T19:01:04.476Z,1.82
2018-10-06T19:03:40.531Z,1.80
2018-10-06T19:06:17.314Z,1.73
2018-10-06T19:08:53.650Z,1.70
2018-10-06T19:11:29.865Z,1.80
2018-10-06T19:14:06.699Z,1.50
2018-10-06T19:16:42.948Z,1.50
2018-10-06T19:19:19.143Z,1.67
2018-10-06T19:21:55.574Z,1.50
2018-10-06T19:24:31.697Z,1.70
2018-10-06T19:27:07.853Z,1.40
2018-10-06T19:29:43.842Z,1.50
2018-10-06T19:32:20.121Z,1.60
2018-10-06T19:34:56.802Z,1.70
2018-10-06T19:37:33.039Z,1.50
2018-10-06T19:40:09.375Z,1.40
2018-10-06T19:42:45.567Z,1.60
2018-10-06T19:45:22.862Z,1.65
2018-10-06T19:47:59.121Z,1.50
2018-10-06T19:50:35.543Z,1.32
2018-10-06T19:53:11.865Z,1.40
2018-10-06T19:55:48.329Z,1.30
2018-10-06T19:58:24.660Z,1.35
2018-10-06T20:01:01.046Z,1.40
2018-10-06T20:03:38.360Z,1.40
2018-10-06T20:06:14.861Z,1.50
2018-10-06T20:08:51.435Z,1.50
2018-10-06T20:11:27.853Z,1.40
2018-10-06T20:14:03.893Z,1.30
2018-10-06T20:16:40.465Z,1.17
2018-10-06T20:19:16.922Z,1.20
2018-10-06T20:21:52.910Z,1.27
2018-10-06T20:24:29.073Z,1.33
2018-10-06T20:27:05.388Z,1.40
2018-10-06T20:29:41.857Z,1.30
2018-10-06T20:32:17.865Z,1.30
2018-10-06T20:36:23.045Z,1.40
2018-10-06T20:38:59.522Z,1.45
2018-10-06T20:41:36.033Z,1.63
2018-10-06T20:44:11.958Z,1.30
2018-10-06T20:46:48.337Z,1.20
2018-10-06T20:49:25.355Z,1.55
2018-10-06T20:52:01.684Z,1.40
2018-10-06T20:54:38.294Z,1.63
2018-10-06T20:57:14.472Z,1.50
2018-10-06T20:59:51.069Z,1.87
2018-10-06T21:02:39.345Z,1.70
2018-10-06T21:08:59.401Z,1.80
2018-10-06T21:11:36.721Z,2.00
2018-10-06T21:14:13.034Z,1.93
2018-10-06T21:16:48.886Z,2.07
2018-10-06T21:19:24.891Z,2.10
2018-10-06T21:22:00.996Z,2.00
2018-10-06T21:24:38.347Z,1.87
2018-10-06T21:27:14.624Z,1.80
2018-10-06T21:29:50.886Z,1.70
2018-10-06T21:32:27.094Z,1.73
2018-10-06T21:35:03.690Z,2.10
2018-10-06T21:37:39.899Z,2.10
2018-10-06T21:40:15.924Z,1.90
2018-10-06T21:42:51.732Z,1.70
2018-10-06T21:45:27.728Z,1.90
2018-10-06T21:48:05.166Z,1.72
2018-10-06T21:50:41.547Z,1.77
2018-10-06T21:53:17.529Z,1.70
2018-10-06T21:55:53.922Z,1.70
2018-10-06T21:58:30.142Z,1.60
2018-10-06T22:01:13.385Z,1.70
2018-10-06T22:03:49.659Z,1.85
2018-10-06T22:06:25.866Z,1.80
2018-10-06T22:09:02.641Z,1.92
2018-10-06T22:11:38.725Z,1.70
2018-10-06T22:14:15.090Z,1.50
2018-10-06T22:16:51.558Z,1.57
2018-10-06T22:19:27.565Z,1.43
2018-10-06T22:22:03.902Z,1.50
2018-10-06T22:24:39.732Z,1.60
2018-10-06T22:27:15.730Z,1.67
2018-10-06T22:29:51.933Z,1.83
2018-10-06T22:32:28.509Z,1.60
2018-10-06T22:35:04.530Z,1.47
2018-10-06T22:37:40.933Z,1.40
2018-10-06T22:40:17.098Z,1.40
2018-10-06T22:42:53.204Z,1.60
2018-10-06T22:45:28.962Z,1.60
2018-10-06T22:48:05.042Z,1.53
2018-10-06T22:50:40.914Z,1.40
2018-10-06T22:53:17.129Z,1.50
2018-10-06T22:55:53.361Z,1.22
2018-10-06T22:58:29.589Z,1.80
2018-10-06T23:01:05.737Z,1.70
2018-10-06T23:03:42.083Z,2.10
2018-10-06T23:06:52.631Z,1.55
2018-10-06T23:09:28.924Z,1.80
2018-10-06T23:12:05.155Z,1.75
2018-10-06T23:14:41.369Z,1.60
2018-10-06T23:17:18.175Z,1.65
2018-10-06T23:19:53.957Z,1.80
2018-10-06T23:22:30.101Z,2.20
2018-10-06T23:25:06.469Z,1.80
2018-10-06T23:27:42.929Z,1.80
2018-10-06T23:30:19.051Z,1.70
2018-10-06T23:32:55.041Z,1.60
2018-10-06T23:35:31.107Z,2.23
2018-10-06T23:38:07.661Z,1.67
2018-10-06T23:40:44.101Z,1.80
2018-10-06T23:43:20.661Z,1.70
2018-10-06T23:45:56.689Z,1.75
2018-10-06T23:48:32.760Z,1.87
2018-10-06T23:51:09.117Z,1.80
2018-10-06T23:53:45.146Z,1.70
2018-10-06T23:56:21.146Z,1.90
2018-10-06T23:58:57.461Z,1.75
